Time;durP1;ratioP1;P1;durP2;ratioP2;P2;SDS_P1;SDS_P2;PMS_P1;PMS_P2;Temp;Humidity;BMP_temperature;BMP_pressure;BME280_temperature;BME280_humidity;BME280_pressure;Samples;Min_cycle;Max_cycle;Signal;HPM_P1;HPM_P2
2023/08/02 00:00:34;;;;;;;;;;;;;;;23.88;100.00;98608.25;5030799;28;19921;-76
2023/08/02 00:03:00;;;;;;;;;;;;;;;23.85;100.00;98603.38;5030231;28;19925;-76
2023/08/02 00:05:25;;;;;;;;;;;;;;;23.82;100.00;98612.75;5030399;28;19921;-76
2023/08/02 00:07:51;;;;;;;;;;;;;;;23.81;100.00;98613.81;5030163;28;19921;-75
2023/08/02 00:10:16;;;;;;;;;;;;;;;23.76;100.00;98608.38;5030534;28;19986;-76
2023/08/02 00:12:42;;;;;;;;;;;;;;;23.68;100.00;98604.22;5030750;28;19951;-76
2023/08/02 00:15:07;;;;;;;;;;;;;;;23.65;100.00;98603.91;5031251;28;19921;-76
2023/08/02 00:17:33;;;;;;;;;;;;;;;23.53;100.00;98595.13;5034722;28;19952;-75
2023/08/02 00:19:58;;;;;;;;;;;;;;;23.55;100.00;98598.41;5025938;28;19921;-77
2023/08/02 00:22:23;;;;;;;;;;;;;;;23.49;100.00;98594.03;5033921;28;19967;-76
2023/08/02 00:24:49;;;;;;;;;;;;;;;23.51;100.00;98594.56;5034431;28;19996;-74
2023/08/02 00:27:14;;;;;;;;;;;;;;;23.48;100.00;98589.69;5033749;28;19922;-74
2023/08/02 00:29:40;;;;;;;;;;;;;;;23.46;100.00;98583.69;5034081;28;19932;-73
2023/08/02 00:32:06;;;;;;;;;;;;;;;23.38;100.00;98586.84;5016254;28;20530;-76
2023/08/02 00:34:32;;;;;;;;;;;;;;;23.42;100.00;98582.56;5034329;28;19922;-75
2023/08/02 00:36:59;;;;;;;;;;;;;;;23.38;100.00;98576.06;5015614;28;20015;-77
2023/08/02 00:39:24;;;;;;;;;;;;;;;23.31;100.00;98565.47;5033899;28;20009;-77
2023/08/02 00:41:50;;;;;;;;;;;;;;;23.26;100.00;98571.63;5034056;28;20023;-78
2023/08/02 00:44:15;;;;;;;;;;;;;;;23.17;100.00;98559.63;5033425;28;19925;-78
2023/08/02 00:46:40;;;;;;;;;;;;;;;22.87;100.00;98559.19;5034075;28;19925;-77
2023/08/02 00:49:08;;;;;;;;;;;;;;;22.82;100.00;98572.56;5032845;28;19929;-76
2023/08/02 00:51:34;;;;;;;;;;;;;;;22.70;100.00;98577.16;5012172;28;19929;-75
2023/08/02 00:54:02;;;;;;;;;;;;;;;22.27;100.00;98581.28;5033412;28;19928;-76
2023/08/02 00:56:28;;;;;;;;;;;;;;;22.18;100.00;98572.00;5033651;28;19936;-76
2023/08/02 00:58:53;;;;;;;;;;;;;;;22.19;100.00;98570.94;5012994;28;20357;-76
2023/08/02 01:01:19;;;;;;;;;;;;;;;22.21;100.00;98576.03;5031170;28;20054;-76
2023/08/02 01:03:44;;;;;;;;;;;;;;;22.12;100.00;98578.31;5031583;28;20026;-77
2023/08/02 01:06:15;;;;;;;;;;;;;;;22.05;100.00;98577.66;5032684;28;19929;-75
2023/08/02 01:08:42;;;;;;;;;;;;;;;22.03;100.00;98558.28;5033457;28;20277;-76
2023/08/02 01:11:07;;;;;;;;;;;;;;;22.05;100.00;98562.34;5033413;28;19924;-75
2023/08/02 01:13:36;;;;;;;;;;;;;;;22.01;100.00;98576.50;5033521;28;19921;-76
2023/08/02 01:16:02;;;;;;;;;;;;;;;21.77;100.00;98572.25;5025943;28;19932;-76
2023/08/02 01:18:27;;;;;;;;;;;;;;;21.86;100.00;98578.84;5033688;28;20325;-75
2023/08/02 01:20:53;;;;;;;;;;;;;;;21.78;100.00;98581.94;5032622;28;19925;-76
2023/08/02 01:23:19;;;;;;;;;;;;;;;21.60;100.00;98573.00;5033376;28;19921;-76
2023/08/02 01:25:46;;;;;;;;;;;;;;;21.62;100.00;98572.72;5033180;28;20354;-76
2023/08/02 01:28:16;;;;;;;;;;;;;;;21.62;100.00;98578.91;5032943;28;20288;-76
2023/08/02 01:30:42;;;;;;;;;;;;;;;21.72;100.00;98578.31;5015636;28;19921;-77
2023/08/02 01:33:08;;;;;;;;;;;;;;;21.78;100.00;98587.31;5032838;28;19921;-75
2023/08/02 01:35:34;;;;;;;;;;;;;;;21.74;100.00;98586.94;5032473;28;19921;-76
2023/08/02 01:37:59;;;;;;;;;;;;;;;21.82;100.00;98585.75;5032008;28;19925;-76
2023/08/02 01:40:25;;;;;;;;;;;;;;;21.86;100.00;98584.22;5032790;28;19921;-76
2023/08/02 01:42:50;;;;;;;;;;;;;;;21.84;100.00;98586.34;5032965;28;19925;-77
2023/08/02 01:45:16;;;;;;;;;;;;;;;21.94;100.00;98578.47;5032545;28;20417;-77
2023/08/02 01:47:41;;;;;;;;;;;;;;;21.96;100.00;98577.22;5015224;28;19921;-76
2023/08/02 01:50:07;;;;;;;;;;;;;;;21.95;100.00;98582.84;5032208;28;19936;-76
2023/08/02 01:52:32;;;;;;;;;;;;;;;21.81;100.00;98589.50;5032530;28;20023;-76
2023/08/02 01:54:57;;;;;;;;;;;;;;;21.82;100.00;98588.44;5014389;28;19921;-77
2023/08/02 01:57:23;;;;;;;;;;;;;;;21.86;100.00;98590.41;5032646;28;19929;-76
2023/08/02 01:59:48;;;;;;;;;;;;;;;21.94;100.00;98592.72;5015258;28;19975;-77
2023/08/02 02:02:14;;;;;;;;;;;;;;;21.90;100.00;98593.44;5032072;28;20396;-76
2023/08/02 02:04:39;;;;;;;;;;;;;;;21.88;100.00;98603.59;5031342;28;19925;-76
2023/08/02 02:07:05;;;;;;;;;;;;;;;21.85;100.00;98609.47;5013981;28;20008;-76
2023/08/02 02:09:31;;;;;;;;;;;;;;;21.83;100.00;98606.19;5032228;28;19929;-77
2023/08/02 02:11:56;;;;;;;;;;;;;;;21.81;100.00;98614.47;5030817;28;19921;-77
2023/08/02 02:14:22;;;;;;;;;;;;;;;21.41;100.00;98614.44;5032195;28;19921;-76
2023/08/02 02:16:47;;;;;;;;;;;;;;;21.53;100.00;98612.56;5032312;28;19927;-76
2023/08/02 02:19:13;;;;;;;;;;;;;;;21.52;100.00;98616.28;5030635;28;19925;-75
2023/08/02 02:21:38;;;;;;;;;;;;;;;21.61;100.00;98620.25;5032147;28;19975;-75
2023/08/02 02:24:03;;;;;;;;;;;;;;;21.61;100.00;98617.59;5031723;28;19928;-75
2023/08/02 02:26:29;;;;;;;;;;;;;;;21.61;100.00;98614.91;5031788;28;20353;-76
2023/08/02 02:28:54;;;;;;;;;;;;;;;21.65;100.00;98610.69;5031729;28;20010;-75
2023/08/02 02:31:22;;;;;;;;;;;;;;;21.72;100.00;98621.28;5031970;28;19921;-75
2023/08/02 02:33:47;;;;;;;;;;;;;;;21.78;100.00;98614.16;5032483;28;19967;-76
2023/08/02 02:36:12;;;;;;;;;;;;;;;21.75;100.00;98615.44;5031623;28;19931;-76
2023/08/02 02:38:38;;;;;;;;;;;;;;;21.81;100.00;98630.59;5031411;28;19957;-75
2023/08/02 02:41:03;;;;;;;;;;;;;;;21.80;100.00;98630.81;5031492;28;19928;-75
2023/08/02 02:43:29;;;;;;;;;;;;;;;21.83;100.00;98625.81;5023907;28;19927;-75
2023/08/02 02:45:54;;;;;;;;;;;;;;;21.79;100.00;98631.91;5031896;28;20004;-75
2023/08/02 02:48:19;;;;;;;;;;;;;;;21.75;100.00;98625.34;5031386;28;19956;-74
2023/08/02 02:50:45;;;;;;;;;;;;;;;21.62;100.00;98616.50;5031938;28;19928;-75
2023/08/02 02:53:10;;;;;;;;;;;;;;;21.62;100.00;98616.50;5031769;28;19925;-75
2023/08/02 02:55:36;;;;;;;;;;;;;;;21.67;100.00;98609.63;5031686;28;19975;-75
2023/08/02 02:58:02;;;;;;;;;;;;;;;21.71;100.00;98603.53;5033496;28;19921;-77
2023/08/02 03:00:28;;;;;;;;;;;;;;;21.75;100.00;98603.88;5032026;28;19921;-75
2023/08/02 03:02:53;;;;;;;;;;;;;;;21.77;100.00;98604.47;5031555;28;20276;-76
2023/08/02 03:05:19;;;;;;;;;;;;;;;21.80;100.00;98606.66;5031541;28;19921;-76
2023/08/02 03:07:46;;;;;;;;;;;;;;;21.82;100.00;98609.94;5031652;28;19921;-75
2023/08/02 03:10:11;;;;;;;;;;;;;;;21.85;100.00;98604.09;5031350;28;19965;-74
2023/08/02 03:12:37;;;;;;;;;;;;;;;21.82;100.00;98600.00;5031472;28;19967;-77
2023/08/02 03:15:02;;;;;;;;;;;;;;;21.79;100.00;98610.41;5031948;28;19921;-75
2023/08/02 03:17:28;;;;;;;;;;;;;;;21.75;100.00;98609.25;5031818;28;20007;-75
2023/08/02 03:19:53;;;;;;;;;;;;;;;21.68;100.00;98613.94;5031530;28;19983;-76
2023/08/02 03:22:19;;;;;;;;;;;;;;;21.61;100.00;98617.59;5030390;28;19928;-76
2023/08/02 03:24:44;;;;;;;;;;;;;;;21.61;100.00;98614.91;5032152;28;20003;-75
2023/08/02 03:27:10;;;;;;;;;;;;;;;21.59;100.00;98617.00;5030907;28;19925;-75
2023/08/02 03:29:36;;;;;;;;;;;;;;;21.57;100.00;98613.72;5032096;28;19921;-75
2023/08/02 03:32:02;;;;;;;;;;;;;;;21.63;100.00;98623.50;5031226;28;19921;-75
2023/08/02 03:34:28;;;;;;;;;;;;;;;21.61;100.00;98639.06;5032124;28;19921;-76
2023/08/02 03:36:53;;;;;;;;;;;;;;;21.52;100.00;98635.09;5031588;28;19940;-75
2023/08/02 03:39:19;;;;;;;;;;;;;;;21.53;100.00;98631.34;5031717;28;20316;-75
2023/08/02 03:41:45;;;;;;;;;;;;;;;21.45;100.00;98638.94;5031427;28;19921;-75
2023/08/02 03:44:11;;;;;;;;;;;;;;;21.42;100.00;98632.19;5031325;28;19940;-75
2023/08/02 03:46:37;;;;;;;;;;;;;;;21.46;100.00;98633.34;5031707;28;19921;-74
2023/08/02 03:49:02;;;;;;;;;;;;;;;21.46;100.00;98643.25;5031236;28;19928;-75
2023/08/02 03:51:27;;;;;;;;;;;;;;;21.41;100.00;98654.69;5034547;28;19972;-74
2023/08/02 03:53:53;;;;;;;;;;;;;;;21.45;100.00;98653.19;5035780;28;19933;-76
2023/08/02 03:56:18;;;;;;;;;;;;;;;21.47;100.00;98648.41;5035414;28;19921;-75
2023/08/02 03:58:44;;;;;;;;;;;;;;;21.44;100.00;98651.53;5034821;28;19921;-75
2023/08/02 04:01:09;;;;;;;;;;;;;;;21.37;100.00;98645.50;5034988;28;20019;-76
2023/08/02 04:03:35;;;;;;;;;;;;;;;21.43;100.00;98644.56;5035907;28;19967;-76
2023/08/02 04:06:00;;;;;;;;;;;;;;;21.40;100.00;98661.13;5035734;28;19965;-76
2023/08/02 04:08:26;;;;;;;;;;;;;;;21.31;100.00;98667.06;5035328;28;19921;-76
2023/08/02 04:10:51;;;;;;;;;;;;;;;21.24;100.00;98669.88;5035317;28;19925;-76
2023/08/02 04:13:17;;;;;;;;;;;;;;;21.16;100.00;98675.56;5034559;28;19977;-77
2023/08/02 04:15:42;;;;;;;;;;;;;;;21.07;100.00;98674.25;5034596;28;19921;-77
2023/08/02 04:18:07;;;;;;;;;;;;;;;21.03;100.00;98670.41;5034298;28;19921;-77
2023/08/02 04:20:36;;;;;;;;;;;;;;;20.97;100.00;98671.34;5034583;28;20409;-78
2023/08/02 04:23:01;;;;;;;;;;;;;;;20.92;100.00;98673.88;5026866;28;20392;-77
2023/08/02 04:25:27;;;;;;;;;;;;;;;20.96;100.00;98675.06;5034731;28;20019;-78
2023/08/02 04:27:52;;;;;;;;;;;;;;;20.92;100.00;98676.56;5034265;28;19967;-77
2023/08/02 04:30:18;;;;;;;;;;;;;;;20.98;100.00;98679.13;5034199;28;19970;-78
2023/08/02 04:32:43;;;;;;;;;;;;;;;21.01;100.00;98684.06;5034609;28;20055;-78
2023/08/02 04:35:08;;;;;;;;;;;;;;;20.96;100.00;98685.78;5032873;28;19921;-76
2023/08/02 04:37:35;;;;;;;;;;;;;;;20.91;100.00;98689.13;5033017;28;19921;-76
2023/08/02 04:40:00;;;;;;;;;;;;;;;20.94;100.00;98688.69;5033966;28;19925;-76
2023/08/02 04:42:26;;;;;;;;;;;;;;;20.92;100.00;98681.91;5034756;28;19928;-77
2023/08/02 04:44:51;;;;;;;;;;;;;;;20.92;100.00;98692.63;5034044;28;19932;-76
2023/08/02 04:47:17;;;;;;;;;;;;;;;20.74;100.00;98688.97;5033846;28;19921;-78
2023/08/02 04:49:42;;;;;;;;;;;;;;;20.76;100.00;98697.63;5034022;28;19971;-81
2023/08/02 04:52:07;;;;;;;;;;;;;;;20.60;100.00;98697.47;5034347;28;20008;-81
2023/08/02 04:54:33;;;;;;;;;;;;;;;20.63;100.00;98708.53;5034933;28;19917;-79
2023/08/02 04:56:59;;;;;;;;;;;;;;;20.62;100.00;98709.56;5026306;28;19966;-79
2023/08/02 04:59:24;;;;;;;;;;;;;;;20.45;100.00;98711.25;5034847;28;19986;-79
2023/08/02 05:01:49;;;;;;;;;;;;;;;20.29;100.00;98706.50;5027290;28;19929;-79
2023/08/02 05:04:15;;;;;;;;;;;;;;;20.09;100.00;98713.97;5034914;28;20086;-76
2023/08/02 05:06:42;;;;;;;;;;;;;;;20.14;100.00;98719.47;5033300;28;19987;-76
2023/08/02 05:09:08;;;;;;;;;;;;;;;20.24;100.00;98709.84;5033419;28;19925;-76
2023/08/02 05:11:33;;;;;;;;;;;;;;;20.35;100.00;98710.97;5033870;28;19921;-77
2023/08/02 05:13:58;;;;;;;;;;;;;;;20.43;100.00;98703.47;5015545;28;19921;-76
2023/08/02 05:16:24;;;;;;;;;;;;;;;20.55;100.00;98706.19;5027219;28;19948;-77
2023/08/02 05:18:50;;;;;;;;;;;;;;;20.61;100.00;98712.50;5023492;28;20402;-76
2023/08/02 05:21:16;;;;;;;;;;;;;;;20.48;100.00;98712.69;5019863;28;20378;-76
2023/08/02 05:23:41;;;;;;;;;;;;;;;20.59;100.00;98723.44;5025351;28;20332;-76
2023/08/02 05:26:07;;;;;;;;;;;;;;;20.61;100.00;98716.00;5032751;28;19975;-76
2023/08/02 05:28:32;;;;;;;;;;;;;;;20.77;100.00;98720.72;5033102;28;19921;-76
2023/08/02 05:30:58;;;;;;;;;;;;;;;20.90;100.00;98730.44;5030234;28;19925;-77
2023/08/02 05:33:23;;;;;;;;;;;;;;;21.01;100.00;98726.16;5031054;28;20423;-78
2023/08/02 05:35:49;;;;;;;;;;;;;;;21.11;100.00;98727.22;5020765;28;20293;-77
2023/08/02 05:38:14;;;;;;;;;;;;;;;21.15;100.00;98732.94;5032349;28;19983;-78
2023/08/02 05:40:39;;;;;;;;;;;;;;;21.16;100.00;98739.97;5016930;28;20003;-76
2023/08/02 05:43:06;;;;;;;;;;;;;;;21.20;100.00;98743.84;5022817;28;19921;-77
2023/08/02 05:45:31;;;;;;;;;;;;;;;21.31;100.00;98743.03;5033491;28;19926;-76
2023/08/02 05:47:59;;;;;;;;;;;;;;;21.36;100.00;98751.19;5030529;28;19921;-78
2023/08/02 05:50:25;;;;;;;;;;;;;;;21.38;100.00;98749.13;5017981;28;19929;-77
2023/08/02 05:52:50;;;;;;;;;;;;;;;21.45;100.00;98739.06;5019252;28;19972;-77
2023/08/02 05:55:16;;;;;;;;;;;;;;;21.45;100.00;98739.06;5018027;28;19925;-76
2023/08/02 05:57:41;;;;;;;;;;;;;;;21.53;100.00;98744.09;5018492;28;20301;-76
2023/08/02 06:00:08;;;;;;;;;;;;;;;21.62;100.00;98748.06;5018378;28;19921;-75
2023/08/02 06:02:33;;;;;;;;;;;;;;;21.55;100.00;98750.06;5017472;28;19921;-77
2023/08/02 06:04:59;;;;;;;;;;;;;;;21.58;100.00;98752.25;5017004;28;19928;-76
2023/08/02 06:07:24;;;;;;;;;;;;;;;21.67;100.00;98763.50;5031371;28;19921;-78
2023/08/02 06:09:50;;;;;;;;;;;;;;;21.68;100.00;98764.31;5032118;28;19968;-75
2023/08/02 06:12:15;;;;;;;;;;;;;;;21.62;100.00;98766.84;5030190;28;19925;-77
2023/08/02 06:14:41;;;;;;;;;;;;;;;21.61;100.00;98770.59;5020034;28;19926;-75
2023/08/02 06:17:06;;;;;;;;;;;;;;;21.76;100.00;98772.00;5026636;28;20024;-75
2023/08/02 06:19:31;;;;;;;;;;;;;;;21.83;100.00;98773.53;5027266;28;19922;-76
2023/08/02 06:21:57;;;;;;;;;;;;;;;21.89;100.00;98764.53;5023561;28;19930;-74
2023/08/02 06:24:23;;;;;;;;;;;;;;;21.98;100.00;98775.75;5024208;28;19991;-76
2023/08/02 06:26:48;;;;;;;;;;;;;;;22.07;100.00;98785.09;5030936;28;19921;-75
2023/08/02 06:29:14;;;;;;;;;;;;;;;22.08;100.00;98786.75;5023849;28;19940;-75
2023/08/02 06:31:39;;;;;;;;;;;;;;;22.09;100.00;98776.81;5031381;28;19921;-76
2023/08/02 06:34:06;;;;;;;;;;;;;;;22.10;100.00;98773.06;5022315;28;20004;-76
2023/08/02 06:36:32;;;;;;;;;;;;;;;22.17;100.00;98782.63;5027724;28;19925;-76
2023/08/02 06:38:58;;;;;;;;;;;;;;;22.27;100.00;98769.41;5028251;28;19921;-75
2023/08/02 06:41:23;;;;;;;;;;;;;;;22.29;100.00;98778.06;5026710;28;19922;-74
2023/08/02 06:43:49;;;;;;;;;;;;;;;22.33;100.00;98773.81;5026064;28;19925;-75
2023/08/02 06:46:14;;;;;;;;;;;;;;;22.43;100.00;98779.44;5022368;28;20000;-76
2023/08/02 06:48:40;;;;;;;;;;;;;;;22.53;100.00;98783.38;5028567;28;19925;-75
2023/08/02 06:51:10;;;;;;;;;;;;;;;22.65;100.00;98784.97;5027836;28;19925;-75
2023/08/02 06:53:37;;;;;;;;;;;;;;;22.78;100.00;98781.22;5030552;28;19979;-75
2023/08/02 06:56:12;;;;;;;;;;;;;;;22.83;100.00;98789.38;5024809;28;19956;-77
2023/08/02 06:58:37;;;;;;;;;;;;;;;22.91;100.00;98791.69;5019878;28;19922;-75
2023/08/02 07:01:10;;;;;;;;;;;;;;;23.01;100.00;98791.88;5024074;28;19944;-74
2023/08/02 07:03:36;;;;;;;;;;;;;;;23.11;100.00;98792.06;5022510;28;20021;-75
2023/08/02 07:06:06;;;;;;;;;;;;;;;23.20;100.00;98789.78;5025082;28;19921;-75
2023/08/02 07:08:32;;;;;;;;;;;;;;;23.27;100.00;98796.63;5019097;28;20408;-74
2023/08/02 07:10:57;;;;;;;;;;;;;;;23.39;100.00;98801.13;5026085;28;19921;-75
2023/08/02 07:13:23;;;;;;;;;;;;;;;23.47;100.00;98795.38;5026657;28;19928;-73
2023/08/02 07:15:48;;;;;;;;;;;;;;;23.55;100.00;98792.28;5026886;28;19922;-76
2023/08/02 07:18:14;;;;;;;;;;;;;;;23.58;100.00;98798.00;5025721;28;20014;-75
2023/08/02 07:20:43;;;;;;;;;;;;;;;23.62;100.00;98803.72;5023688;28;20337;-78
2023/08/02 07:23:08;;;;;;;;;;;;;;;23.66;100.00;98807.56;5026492;28;20006;-77
2023/08/02 07:25:34;;;;;;;;;;;;;;;23.71;100.00;98807.63;5022864;28;19985;-75
2023/08/02 07:28:00;;;;;;;;;;;;;;;23.79;100.00;98793.75;5017199;28;19927;-75
2023/08/02 07:30:26;;;;;;;;;;;;;;;23.78;100.00;98799.38;5023666;28;19928;-76
2023/08/02 07:32:51;;;;;;;;;;;;;;;23.84;100.00;98798.41;5019781;28;19936;-75
2023/08/02 07:35:17;;;;;;;;;;;;;;;23.90;100.00;98790.16;5023649;28;19925;-76
2023/08/02 07:37:42;;;;;;;;;;;;;;;24.00;100.00;98789.47;5022380;28;19968;-74
2023/08/02 07:40:08;;;;;;;;;;;;;;;24.05;100.00;98787.66;5023594;28;19967;-76
2023/08/02 07:42:33;;;;;;;;;;;;;;;24.17;100.00;98794.81;5020480;28;19951;-76
2023/08/02 07:45:02;;;;;;;;;;;;;;;24.24;100.00;98800.88;5024135;28;19921;-75
2023/08/02 07:47:28;;;;;;;;;;;;;;;24.31;100.00;98796.13;5024193;28;19921;-77
2023/08/02 07:49:54;;;;;;;;;;;;;;;24.38;100.00;98792.19;5026178;28;20011;-74
2023/08/02 07:52:19;;;;;;;;;;;;;;;24.44;100.00;98795.78;5022029;28;19925;-76
2023/08/02 07:54:44;;;;;;;;;;;;;;;24.49;100.00;98785.03;5017129;28;20012;-74
2023/08/02 07:57:10;;;;;;;;;;;;;;;24.55;100.00;98784.03;5023493;28;20004;-75
2023/08/02 07:59:35;;;;;;;;;;;;;;;24.61;100.00;98793.00;5025706;28;19921;-72
2023/08/02 08:02:00;;;;;;;;;;;;;;;24.66;100.00;98796.56;5023595;28;19921;-72
2023/08/02 08:04:26;;;;;;;;;;;;;;;24.72;100.00;98792.88;5026156;28;19983;-74
2023/08/02 08:06:51;;;;;;;;;;;;;;;24.79;100.00;98782.72;5027708;28;19925;-75
2023/08/02 08:09:23;;;;;;;;;;;;;;;24.85;100.00;98792.50;5024756;28;19921;-77
2023/08/02 08:11:49;;;;;;;;;;;;;;;24.91;100.00;98784.47;5029111;28;20358;-77
2023/08/02 08:14:14;;;;;;;;;;;;;;;24.96;100.00;98781.81;5025463;28;19972;-77
2023/08/02 08:16:40;;;;;;;;;;;;;;;25.01;100.00;98784.56;5026925;28;19980;-78
2023/08/02 08:19:05;;;;;;;;;;;;;;;25.06;100.00;98792.72;5025733;28;19983;-77
2023/08/02 08:21:31;;;;;;;;;;;;;;;25.12;100.00;98791.69;5029491;28;19956;-76
2023/08/02 08:23:56;;;;;;;;;;;;;;;25.18;100.00;98785.28;5010001;28;19925;-76
2023/08/02 08:26:22;;;;;;;;;;;;;;;25.25;100.00;98789.41;5015680;28;19937;-75
2023/08/02 08:28:48;;;;;;;;;;;;;;;25.29;100.00;98787.00;5028092;28;19968;-77
2023/08/02 08:31:13;;;;;;;;;;;;;;;25.37;100.00;98786.53;5023020;28;19952;-78
2023/08/02 08:33:38;;;;;;;;;;;;;;;25.46;100.00;98787.69;5018363;28;19935;-76
2023/08/02 08:36:04;;;;;;;;;;;;;;;25.58;100.00;98791.06;5025827;28;20003;-75
2023/08/02 08:38:30;;;;;;;;;;;;;;;25.65;100.00;98791.66;5029625;28;19928;-74
2023/08/02 08:40:56;;;;;;;;;;;;;;;25.72;100.00;98790.63;5033179;28;19944;-75
2023/08/02 08:43:28;;;;;;;;;;;;;;;25.67;100.00;98788.72;5033396;28;19921;-74
2023/08/02 08:45:54;;;;;;;;;;;;;;;25.67;100.00;98794.09;5033320;28;20435;-74
2023/08/02 08:48:19;;;;;;;;;;;;;;;25.69;100.00;98787.34;5033285;28;20440;-74
2023/08/02 08:50:46;;;;;;;;;;;;;;;25.74;100.00;98799.28;5019164;28;20004;-75
2023/08/02 08:53:17;;;;;;;;;;;;;;;25.78;100.00;98801.22;5028077;28;20032;-76
2023/08/02 08:55:44;;;;;;;;;;;;;;;25.85;100.00;98795.59;5028360;28;20277;-74
2023/08/02 08:58:10;;;;;;;;;;;;;;;25.88;100.00;98784.25;5028860;28;20237;-77
2023/08/02 09:00:36;;;;;;;;;;;;;;;25.89;100.00;98783.19;5029416;28;19928;-76
2023/08/02 09:03:02;;;;;;;;;;;;;;;25.91;100.00;98789.16;5014657;28;19978;-78
2023/08/02 09:05:30;;;;;;;;;;;;;;;25.95;100.00;98785.66;5029226;28;19921;-78
2023/08/02 09:07:59;;;;;;;;;;;;;;;26.03;100.00;98792.47;5032309;28;19921;-78
2023/08/02 09:10:25;;;;;;;;;;;;;;;26.10;100.00;98790.31;5033308;28;19929;-77
2023/08/02 09:12:51;;;;;;;;;;;;;;;26.20;100.00;98793.09;5025638;28;19932;-77
2023/08/02 09:15:16;;;;;;;;;;;;;;;26.27;100.00;98787.50;5032739;28;20019;-78
2023/08/02 09:17:49;;;;;;;;;;;;;;;26.29;100.00;98791.53;5033213;28;19922;-78
2023/08/02 09:20:15;;;;;;;;;;;;;;;26.28;100.00;98795.31;5014955;28;20262;-78
2023/08/02 09:22:41;;;;;;;;;;;;;;;26.25;100.00;98790.44;5033434;28;19932;-78
2023/08/02 09:25:11;;;;;;;;;;;;;;;26.30;100.00;98787.78;4332527;28;10000816;-77
2023/08/02 09:27:37;;;;;;;;;;;;;;;26.33;100.00;98787.22;5026877;28;19932;-77
2023/08/02 09:30:03;;;;;;;;;;;;;;;26.36;100.00;98777.78;4329759;28;10020708;-77
2023/08/02 09:32:28;;;;;;;;;;;;;;;26.41;100.00;98783.22;5024765;28;19941;-73
2023/08/02 09:34:55;;;;;;;;;;;;;;;26.46;100.00;98775.13;5030271;28;20008;-74
2023/08/02 09:37:34;;;;;;;;;;;;;;;26.51;100.00;98782.47;5021561;28;20016;-74
2023/08/02 09:40:00;;;;;;;;;;;;;;;26.53;100.00;98775.69;5018790;28;19925;-80
2023/08/02 09:42:27;;;;;;;;;;;;;;;26.57;100.00;98776.00;5027090;28;19921;-78
2023/08/02 09:45:00;;;;;;;;;;;;;;;26.62;100.00;98784.13;5020965;28;19922;-76
2023/08/02 09:47:29;;;;;;;;;;;;;;;26.64;100.00;98782.75;5019979;28;19929;-75
2023/08/02 09:50:02;;;;;;;;;;;;;;;26.63;100.00;98783.84;5023032;28;19935;-76
2023/08/02 09:52:28;;;;;;;;;;;;;;;26.70;100.00;98783.59;5026527;28;19970;-75
2023/08/02 09:54:53;;;;;;;;;;;;;;;26.74;100.00;98779.28;5036912;28;19921;-77
2023/08/02 09:57:24;;;;;;;;;;;;;;;26.82;100.00;98779.56;5024578;28;19964;-76
2023/08/02 09:59:51;;;;;;;;;;;;;;;26.89;100.00;98773.94;5016891;28;19921;-77
2023/08/02 10:02:17;;;;;;;;;;;;;;;26.97;100.00;98770.72;5021273;28;20395;-77
2023/08/02 10:04:43;;;;;;;;;;;;;;;27.02;100.00;98769.91;5027603;28;19921;-77
2023/08/02 10:07:12;;;;;;;;;;;;;;;27.06;100.00;98774.50;5029464;28;19921;-76
2023/08/02 10:09:38;;;;;;;;;;;;;;;27.04;100.00;98771.25;5028172;28;20356;-77
2023/08/02 10:12:06;;;;;;;;;;;;;;;27.02;100.00;98768.03;4673641;28;10000664;-77
2023/08/02 10:14:31;;;;;;;;;;;;;;;27.01;100.00;98766.38;5014753;28;19952;-78
2023/08/02 10:17:06;;;;;;;;;;;;;;;27.05;100.00;98762.03;5014262;28;19928;-74
2023/08/02 10:19:33;;;;;;;;;;;;;;;27.06;100.00;98766.38;5018196;28;20293;-75
2023/08/02 10:22:00;;;;;;;;;;;;;;;27.03;100.00;98758.81;5015849;28;19916;-74
2023/08/02 10:24:27;;;;;;;;;;;;;;;27.08;99.14;98758.00;5021241;28;20012;-77
2023/08/02 10:26:56;;;;;;;;;;;;;;;27.15;100.00;98755.84;5016508;28;19929;-76
2023/08/02 10:29:24;;;;;;;;;;;;;;;27.20;100.00;98743.13;5015393;28;19925;-76
2023/08/02 10:31:49;;;;;;;;;;;;;;;27.28;100.00;98745.28;5011385;28;19932;-76
2023/08/02 10:34:33;;;;;;;;;;;;;;;27.37;99.25;98742.03;5019952;28;19925;-77
2023/08/02 10:36:59;;;;;;;;;;;;;;;27.44;99.90;98739.88;5023841;28;20309;-75
2023/08/02 10:39:43;;;;;;;;;;;;;;;27.50;96.68;98733.38;4648608;28;10000014;-78
2023/08/02 10:42:12;;;;;;;;;;;;;;;27.53;98.26;98727.41;5016471;28;19921;-75
2023/08/02 10:44:37;;;;;;;;;;;;;;;27.60;96.87;98730.66;5018205;28;19936;-77
2023/08/02 10:47:21;;;;;;;;;;;;;;;27.63;94.11;98724.69;5020907;28;20381;-77
2023/08/02 10:49:47;;;;;;;;;;;;;;;27.66;93.12;98724.16;5022285;28;19921;-77
2023/08/02 10:52:22;;;;;;;;;;;;;;;27.69;95.12;98713.56;5019353;28;20380;-77
2023/08/02 10:55:03;;;;;;;;;;;;;;;27.73;95.54;98710.31;5016179;28;19925;-76
2023/08/02 10:57:29;;;;;;;;;;;;;;;27.78;95.28;98711.13;5020863;28;19981;-77
2023/08/02 10:59:55;;;;;;;;;;;;;;;27.83;94.28;98718.44;4999319;28;20459;-75
2023/08/02 11:02:20;;;;;;;;;;;;;;;27.89;92.27;98723.56;5019020;28;19926;-78
2023/08/02 11:04:47;;;;;;;;;;;;;;;27.93;91.85;98716.50;5025483;28;19936;-78
2023/08/02 11:07:18;;;;;;;;;;;;;;;27.96;90.06;98713.25;5018496;28;19925;-79
2023/08/02 11:09:43;;;;;;;;;;;;;;;27.99;91.26;98707.25;5021808;28;19921;-79
2023/08/02 11:12:10;;;;;;;;;;;;;;;28.03;91.52;98702.94;5026400;28;19924;-75
2023/08/02 11:14:38;;;;;;;;;;;;;;;28.06;92.93;98696.13;5023979;28;19922;-76
2023/08/02 11:17:04;;;;;;;;;;;;;;;28.07;93.14;98698.56;5023049;28;20447;-77
2023/08/02 11:19:31;;;;;;;;;;;;;;;28.11;93.60;98699.63;5027176;28;19917;-76
2023/08/02 11:21:58;;;;;;;;;;;;;;;28.18;92.57;98693.13;5017701;28;19975;-77
2023/08/02 11:24:24;;;;;;;;;;;;;;;28.31;91.44;98687.09;5022046;28;19924;-76
2023/08/02 11:26:53;;;;;;;;;;;;;;;28.43;91.65;98684.88;5021420;28;19956;-77
2023/08/02 11:29:20;;;;;;;;;;;;;;;28.47;92.03;98685.91;5021831;28;19926;-76
2023/08/02 11:31:46;;;;;;;;;;;;;;;28.55;89.76;98681.81;5018399;28;20329;-74
2023/08/02 11:34:15;;;;;;;;;;;;;;;28.58;91.05;98681.25;5022749;28;20018;-75
2023/08/02 11:36:40;;;;;;;;;;;;;;;28.63;91.08;98668.44;5021703;28;19929;-76
2023/08/02 11:39:06;;;;;;;;;;;;;;;28.68;90.21;98665.72;5018328;28;19932;-80
2023/08/02 11:41:31;;;;;;;;;;;;;;;28.74;88.96;98672.78;5025695;28;19960;-78
2023/08/02 11:43:57;;;;;;;;;;;;;;;28.83;89.29;98673.78;5016040;28;20048;-77
2023/08/02 11:46:25;;;;;;;;;;;;;;;28.88;88.05;98665.59;5024324;28;19922;-87
2023/08/02 11:48:52;;;;;;;;;;;;;;;28.97;87.68;98667.72;5024235;28;19963;-87
2023/08/02 11:51:19;;;;;;;;;;;;;;;29.01;87.75;98663.31;5022556;28;20242;-77
2023/08/02 11:53:48;;;;;;;;;;;;;;;29.10;87.49;98667.84;5016466;28;20017;-76
2023/08/02 11:56:13;;;;;;;;;;;;;;;29.20;87.32;98666.97;5021048;28;19921;-76
2023/08/02 11:58:39;;;;;;;;;;;;;;;29.27;86.15;98664.75;5027106;28;19928;-77
2023/08/02 12:01:05;;;;;;;;;;;;;;;29.32;86.19;98664.69;5019840;28;19975;-77
2023/08/02 12:03:30;;;;;;;;;;;;;;;29.43;86.03;98649.13;5028292;28;20016;-72
2023/08/02 12:06:00;;;;;;;;;;;;;;;29.60;85.94;98654.91;5031197;28;19969;-74
2023/08/02 12:08:26;;;;;;;;;;;;;;;29.80;83.40;98643.03;5033608;28;19929;-75
2023/08/02 12:10:51;;;;;;;;;;;;;;;30.01;83.86;98637.06;5034670;28;20455;-75
2023/08/02 12:13:17;;;;;;;;;;;;;;;30.08;82.38;98640.25;5030441;28;19925;-76
2023/08/02 12:16:02;;;;;;;;;;;;;;;30.21;82.25;98638.72;5031987;28;19921;-76
2023/08/02 12:18:27;;;;;;;;;;;;;;;30.54;79.99;98636.09;5037710;28;19928;-77
2023/08/02 12:20:53;;;;;;;;;;;;;;;30.80;78.55;98640.88;5040519;28;19920;-76
2023/08/02 12:23:31;;;;;;;;;;;;;;;30.86;78.92;98636.16;5037151;28;19929;-76
2023/08/02 12:25:57;;;;;;;;;;;;;;;30.77;79.91;98632.47;5037460;28;20269;-76
2023/08/02 12:28:22;;;;;;;;;;;;;;;30.67;80.12;98641.63;5039629;28;19935;-76
2023/08/02 12:31:03;;;;;;;;;;;;;;;30.60;80.47;98629.47;5037665;28;19963;-77
2023/08/02 12:33:31;;;;;;;;;;;;;;;30.52;80.55;98629.03;5031796;28;19928;-81